Current Weather

Kairouan

Kairouan, Tunisia (DTTK)

Report from: Tuesday, July 16, 2024 3:00 PM CET
Current time: Tuesday, July 16, 2024 3:45 PM CET

Nearby weather – Weather history – Daily summaries
Weather forecast

Temperature42.0°C (107.6°F)
Heat index39.2°C (102.6°F)
Dew point5.0°C (41.0°F)
Winds 5 kts (2.6 m/s, 5.8 mph) East-Southeast (110°)
Clouds Sky clear
Altimeter29.91 in.Hg (1013 mB)
Relative humidity11 %
Density altitude3,162 ft. (964 m)
Remarks Ceiling and visibility OK
Flight conditions Visual Meteorological Conditions
Raw dataDTTK 161400Z 11005KT CAVOK 42/05 Q1013 SIROCCO
An error has occurred. This application may no longer respond until reloaded. Reload 🗙